Time;durP1;ratioP1;P1;durP2;ratioP2;P2;SDS_P1;SDS_P2;PMS_P1;PMS_P2;Temp;Humidity;BMP_temperature;BMP_pressure;BME280_temperature;BME280_humidity;BME280_pressure;Samples;Min_cycle;Max_cycle;Signal;HPM_P1;HPM_P2
2021/01/02 00:01:03;;;;;;;23.08;13.95;;;4.40;17.70;;;;;;5076072;28;20167;-68
2021/01/02 00:03:55;;;;;;;22.63;12.73;;;4.30;25.20;;;;;;5076243;28;20293;-68
2021/01/02 00:06:26;;;;;;;20.77;14.00;;;4.30;31.50;;;;;;5056733;28;20184;-68
2021/01/02 00:09:00;;;;;;;20.20;12.38;;;4.50;35.00;;;;;;5075791;28;20263;-68
2021/01/02 00:12:02;;;;;;;20.10;11.95;;;4.30;37.30;;;;;;5076058;28;20535;-67
2021/01/02 00:14:58;;;;;;;19.00;13.60;;;4.30;33.90;;;;;;5075884;28;20184;-68
2021/01/02 00:17:49;;;;;;;20.80;13.30;;;4.30;31.30;;;;;;5075594;28;20176;-68
2021/01/02 00:20:42;;;;;;;18.38;11.40;;;4.30;22.80;;;;;;5076010;28;20200;-66
2021/01/02 00:23:35;;;;;;;20.58;13.02;;;4.30;57.70;;;;;;5075584;28;20160;-68
2021/01/02 00:26:30;;;;;;;20.05;12.60;;;4.10;65.70;;;;;;5075889;28;20157;-68
2021/01/02 00:28:56;;;;;;;18.70;12.88;;;4.10;75.40;;;;;;5055861;28;20204;-68
2021/01/02 00:31:34;;;;;;;16.92;11.95;;;4.20;46.20;;;;;;5075394;28;20176;-67
2021/01/02 00:34:28;;;;;;;21.98;12.23;;;4.20;35.30;;;;;;5075184;28;20194;-68
2021/01/02 00:37:13;;;;;;;22.75;12.48;;;4.30;57.60;;;;;;5075419;28;20194;-68
2021/01/02 00:39:58;;;;;;;21.27;11.60;;;4.40;30.00;;;;;;5075430;28;20180;-68
2021/01/02 00:42:25;;;;;;;20.05;13.50;;;4.40;32.30;;;;;;5075507;28;20148;-68
2021/01/02 00:44:56;;;;;;;23.02;12.32;;;4.30;31.90;;;;;;5075165;28;20213;-67
2021/01/02 00:47:26;;;;;;;20.80;13.10;;;4.20;56.10;;;;;;5075216;28;20247;-68
2021/01/02 00:49:54;;;;;;;22.42;12.50;;;4.30;40.40;;;;;;5074962;28;20226;-68
2021/01/02 00:52:44;;;;;;;19.70;12.80;;;4.40;29.70;;;;;;5075037;28;20160;-68
2021/01/02 00:55:25;;;;;;;16.23;11.80;;;4.10;86.70;;;;;;5075134;28;20156;-68
2021/01/02 00:58:04;;;;;;;20.00;11.80;;;4.20;72.70;;;;;;5074576;28;20184;-68
2021/01/02 01:00:34;;;;;;;17.85;12.05;;;4.10;98.80;;;;;;5074894;28;20179;-68
2021/01/02 01:03:12;;;;;;;16.45;11.13;;;4.20;77.60;;;;;;5074079;28;20234;-68
2021/01/02 01:05:39;;;;;;;20.60;12.70;;;4.30;62.40;;;;;;5074827;28;20243;-67
2021/01/02 01:08:06;;;;;;;18.33;12.52;;;4.30;45.80;;;;;;5074835;28;20225;-68
2021/01/02 01:10:35;;;;;;;18.48;13.15;;;4.40;51.50;;;;;;5074700;28;20188;-68
2021/01/02 01:13:10;;;;;;;18.77;12.77;;;4.20;36.50;;;;;;5074749;28;20192;-68
2021/01/02 01:15:36;;;;;;;21.80;13.77;;;4.30;42.20;;;;;;5075050;28;20148;-68
2021/01/02 01:18:03;;;;;;;18.77;12.37;;;4.30;34.10;;;;;;5074817;28;20170;-67
2021/01/02 01:20:29;;;;;;;18.95;11.45;;;4.30;48.80;;;;;;5074440;28;20188;-68
2021/01/02 01:23:37;;;;;;;23.10;13.10;;;4.30;41.70;;;;;;5074773;28;20255;-68
2021/01/02 01:26:16;;;;;;;18.27;12.45;;;4.20;47.80;;;;;;5063451;28;20518;-67
2021/01/02 01:28:45;;;;;;;20.33;12.40;;;4.10;59.80;;;;;;5074747;28;20250;-67
2021/01/02 01:31:16;;;;;;;17.40;12.40;;;4.00;77.30;;;;;;5074568;28;20165;-68
2021/01/02 01:33:50;;;;;;;23.75;14.15;;;4.10;96.70;;;;;;5074358;28;20184;-68
2021/01/02 01:36:20;;;;;;;18.27;12.65;;;4.30;49.60;;;;;;5074559;28;20221;-67
2021/01/02 01:38:52;;;;;;;19.60;11.65;;;4.20;51.80;;;;;;5074274;28;20196;-68
2021/01/02 01:41:18;;;;;;;17.25;11.02;;;4.40;45.00;;;;;;5074167;28;20231;-68
2021/01/02 01:43:49;;;;;;;18.23;12.88;;;4.30;50.30;;;;;;5074574;28;20179;-68
2021/01/02 01:46:16;;;;;;;18.75;12.13;;;4.30;35.10;;;;;;5074160;28;20176;-67
2021/01/02 01:49:11;;;;;;;21.13;13.35;;;4.30;43.60;;;;;;5074169;28;20257;-67
2021/01/02 01:52:01;;;;;;;20.38;11.80;;;4.20;26.10;;;;;;5074507;28;20259;-66
2021/01/02 01:54:33;;;;;;;21.13;12.25;;;4.30;49.40;;;;;;5073931;28;20184;-67
2021/01/02 01:57:06;;;;;;;20.35;14.07;;;4.30;45.40;;;;;;5074040;28;20601;-67
2021/01/02 02:00:04;;;;;;;15.23;11.50;;;4.30;56.10;;;;;;5073614;28;20194;-67
2021/01/02 02:02:39;;;;;;;20.98;11.40;;;4.40;55.60;;;;;;5073845;28;20214;-67
2021/01/02 02:05:09;;;;;;;19.58;11.80;;;4.10;70.10;;;;;;5074180;28;20164;-67
2021/01/02 02:07:46;;;;;;;18.45;11.82;;;4.20;89.70;;;;;;5073826;28;20187;-67
2021/01/02 02:10:33;;;;;;;17.35;10.85;;;4.10;96.00;;;;;;5073499;28;20267;-66
2021/01/02 02:13:03;;;;;;;19.73;11.52;;;4.00;99.90;;;;;;5073354;28;20231;-67
2021/01/02 02:15:29;;;;;;;19.17;12.48;;;4.20;96.10;;;;;;5073502;28;20502;-67
2021/01/02 02:18:08;;;;;;;17.57;11.50;;;4.20;64.60;;;;;;5073398;28;20246;-67
2021/01/02 02:20:35;;;;;;;26.08;14.55;;;4.10;69.50;;;;;;5073549;28;20422;-66
2021/01/02 02:23:03;;;;;;;19.70;12.95;;;4.10;77.40;;;;;;5073320;28;20164;-67
2021/01/02 02:25:44;;;;;;;20.70;12.88;;;4.20;83.90;;;;;;5073266;28;20235;-67
2021/01/02 02:28:24;;;;;;;19.20;11.90;;;4.20;69.40;;;;;;5073545;28;20152;-67
2021/01/02 02:30:55;;;;;;;15.77;10.80;;;4.10;96.60;;;;;;5073281;28;20167;-68
2021/01/02 02:33:24;;;;;;;19.67;12.45;;;4.00;99.90;;;;;;5073459;28;20194;-66
2021/01/02 02:35:52;;;;;;;22.02;13.05;;;4.00;99.90;;;;;;5073089;28;20646;-67
2021/01/02 02:38:18;;;;;;;19.27;12.45;;;4.10;99.90;;;;;;5073170;28;20172;-67
2021/01/02 02:40:43;;;;;;;22.27;12.10;;;4.20;98.20;;;;;;5073555;28;20648;-67
2021/01/02 02:43:10;;;;;;;23.63;12.23;;;4.00;99.90;;;;;;5072965;28;20180;-68
2021/01/02 02:45:36;;;;;;;20.08;13.00;;;4.00;99.90;;;;;;5071769;28;20196;-67
2021/01/02 02:48:15;;;;;;;19.93;12.37;;;4.00;99.90;;;;;;5073098;28;20204;-67
2021/01/02 02:50:44;;;;;;;18.80;11.75;;;4.00;99.90;;;;;;5072897;28;20160;-67
2021/01/02 02:53:12;;;;;;;17.20;11.55;;;4.10;98.00;;;;;;5073013;28;20188;-67
2021/01/02 02:55:39;;;;;;;21.40;13.02;;;4.20;94.70;;;;;;5072878;28;20660;-67
2021/01/02 02:58:06;;;;;;;17.90;12.55;;;4.20;71.70;;;;;;5072784;28;20164;-68
2021/01/02 03:00:36;;;;;;;19.88;12.48;;;4.20;68.70;;;;;;5072706;28;20199;-67
2021/01/02 03:03:03;;;;;;;15.27;11.60;;;4.00;97.70;;;;;;5072801;28;20164;-67
2021/01/02 03:05:29;;;;;;;24.40;12.88;;;4.00;99.90;;;;;;5072755;28;20175;-66
2021/01/02 03:07:55;;;;;;;27.00;13.32;;;4.10;99.90;;;;;;5071542;28;20176;-67
2021/01/02 03:10:22;;;;;;;21.50;13.02;;;4.00;99.90;;;;;;5073032;28;20194;-67
2021/01/02 03:12:50;;;;;;;22.08;13.30;;;4.00;99.90;;;;;;5072929;28;20576;-67
2021/01/02 03:15:17;;;;;;;19.67;11.80;;;4.10;91.50;;;;;;5072760;28;20164;-68
2021/01/02 03:17:44;;;;;;;21.58;12.60;;;4.10;99.90;;;;;;5073264;28;20165;-67
2021/01/02 03:20:11;;;;;;;20.35;11.90;;;4.00;99.90;;;;;;5072642;28;20194;-67
2021/01/02 03:22:39;;;;;;;21.50;12.55;;;3.90;99.90;;;;;;5072838;28;20168;-67
2021/01/02 03:25:06;;;;;;;88.07;41.55;;;3.80;99.90;;;;;;5073764;28;20532;-67
2021/01/02 03:27:32;;;;;;;21.90;13.63;;;4.10;99.90;;;;;;5076546;28;20251;-68
2021/01/02 03:29:57;;;;;;;22.30;11.80;;;4.40;99.90;;;;;;5075256;28;20230;-67
2021/01/02 03:32:23;;;;;;;18.70;11.90;;;4.60;91.10;;;;;;5076607;28;20175;-67
2021/01/02 03:34:48;;;;;;;29.77;13.93;;;4.50;54.70;;;;;;5076544;28;20164;-67
2021/01/02 03:37:14;;;;;;;17.83;12.47;;;4.30;99.90;;;;;;5076450;28;20214;-67
2021/01/02 03:39:39;;;;;;;19.30;12.77;;;4.20;70.30;;;;;;5076641;28;20192;-67
2021/01/02 03:42:07;;;;;;;24.50;14.07;;;4.30;95.10;;;;;;5076461;28;20171;-68
2021/01/02 03:44:33;;;;;;;21.42;12.95;;;4.10;95.00;;;;;;5076385;28;20196;-67
2021/01/02 03:46:58;;;;;;;21.27;13.77;;;4.10;99.90;;;;;;5076328;28;20272;-67
2021/01/02 03:49:24;;;;;;;18.70;13.17;;;4.00;99.90;;;;;;5076116;28;20210;-67
2021/01/02 03:51:49;;;;;;;21.87;14.03;;;3.70;99.90;;;;;;5076245;28;20256;-67
2021/01/02 03:54:17;;;;;;;19.10;11.20;;;3.70;99.90;;;;;;5076065;28;20227;-67
2021/01/02 03:56:42;;;;;;;22.88;13.60;;;3.90;99.90;;;;;;5076285;28;20259;-67
2021/01/02 03:59:08;;;;;;;19.00;12.07;;;3.90;99.90;;;;;;5076277;28;20224;-67
2021/01/02 04:01:34;;;;;;;16.17;11.60;;;3.80;99.90;;;;;;5076608;28;20536;-67
2021/01/02 04:03:59;;;;;;;19.80;12.73;;;3.90;99.90;;;;;;5076470;28;20180;-67
2021/01/02 04:06:25;;;;;;;21.67;14.53;;;3.80;99.90;;;;;;5075990;28;20194;-67
2021/01/02 04:08:51;;;;;;;23.60;13.68;;;4.00;99.90;;;;;;5074482;28;20192;-67
2021/01/02 04:11:17;;;;;;;21.73;12.53;;;4.10;99.90;;;;;;5075840;28;20176;-67
2021/01/02 04:13:42;;;;;;;20.17;12.30;;;4.10;99.90;;;;;;5076078;28;20200;-67
2021/01/02 04:16:08;;;;;;;20.20;13.37;;;4.10;99.90;;;;;;5076066;28;20308;-66
2021/01/02 04:18:34;;;;;;;20.10;12.90;;;4.10;99.90;;;;;;5075913;28;20168;-66
2021/01/02 04:21:00;;;;;;;20.10;13.53;;;4.10;99.90;;;;;;5074891;28;20172;-67
2021/01/02 04:23:26;;;;;;;21.60;13.10;;;4.10;99.90;;;;;;5075654;28;20547;-67
2021/01/02 04:25:51;;;;;;;20.38;13.20;;;4.20;99.90;;;;;;5075615;28;20377;-66
2021/01/02 04:28:17;;;;;;;16.93;12.80;;;4.00;99.90;;;;;;5075804;28;20183;-67
2021/01/02 04:30:43;;;;;;;22.27;13.40;;;3.90;99.90;;;;;;5075770;28;20536;-67
2021/01/02 04:33:08;;;;;;;22.57;14.40;;;4.10;99.90;;;;;;5075366;28;20555;-67
2021/01/02 04:35:34;;;;;;;19.47;13.03;;;4.10;99.90;;;;;;5075113;28;20218;-67
2021/01/02 04:38:01;;;;;;;18.90;13.40;;;4.10;99.90;;;;;;5075672;28;20168;-67
2021/01/02 04:40:27;;;;;;;24.20;15.30;;;4.20;99.90;;;;;;5075219;28;20187;-67
2021/01/02 04:42:53;;;;;;;17.73;11.87;;;4.20;99.90;;;;;;5075220;28;20164;-67
2021/01/02 04:45:20;;;;;;;21.35;12.70;;;4.20;72.70;;;;;;5075166;28;20160;-67
2021/01/02 04:47:49;;;;;;;21.70;13.77;;;4.30;62.80;;;;;;5075374;28;20204;-67
2021/01/02 04:50:15;;;;;;;18.27;12.32;;;4.40;77.10;;;;;;5074972;28;20204;-67
2021/01/02 04:52:41;;;;;;;19.70;12.80;;;4.20;93.50;;;;;;5075275;28;20271;-66
2021/01/02 04:55:08;;;;;;;21.15;12.80;;;4.20;99.90;;;;;;5075360;28;20165;-67
2021/01/02 04:57:38;;;;;;;19.88;13.43;;;4.10;76.80;;;;;;5075248;28;20510;-66
2021/01/02 05:00:07;;;;;;;22.35;14.07;;;4.10;72.40;;;;;;5074921;28;20188;-67
2021/01/02 05:02:33;;;;;;;17.77;11.38;;;3.90;99.90;;;;;;5074869;28;20221;-67
2021/01/02 05:05:00;;;;;;;21.75;14.35;;;3.80;99.90;;;;;;5074814;28;20167;-67
2021/01/02 05:07:27;;;;;;;21.23;11.93;;;3.70;99.90;;;;;;5074982;28;20298;-65
2021/01/02 05:09:53;;;;;;;15.98;10.90;;;4.10;99.90;;;;;;5074707;28;20184;-67
2021/01/02 05:12:23;;;;;;;23.10;13.17;;;4.10;99.90;;;;;;5074622;28;20247;-67
2021/01/02 05:15:00;;;;;;;21.65;13.43;;;4.10;99.90;;;;;;5074762;28;20430;-67
2021/01/02 05:17:27;;;;;;;22.48;12.80;;;4.00;98.70;;;;;;5074726;28;20533;-66
2021/01/02 05:20:05;;;;;;;19.38;11.50;;;3.70;99.90;;;;;;5075144;28;20190;-67
2021/01/02 05:22:31;;;;;;;31.40;15.45;;;3.70;99.90;;;;;;5074898;28;20182;-67
2021/01/02 05:25:14;;;;;;;21.30;14.23;;;3.80;99.90;;;;;;5074482;28;20172;-67
2021/01/02 05:27:42;;;;;;;18.13;12.68;;;3.90;99.90;;;;;;5074435;28;20414;-67
2021/01/02 05:30:20;;;;;;;21.10;12.77;;;3.90;99.90;;;;;;5074197;28;20664;-67
2021/01/02 05:32:59;;;;;;;28.65;13.38;;;4.10;99.90;;;;;;5074226;28;20263;-67
2021/01/02 05:35:45;;;;;;;21.02;12.25;;;4.10;99.90;;;;;;5074327;28;20570;-67
2021/01/02 05:38:19;;;;;;;21.80;14.10;;;3.90;99.90;;;;;;5074204;28;20161;-67
2021/01/02 05:40:50;;;;;;;21.77;12.25;;;4.10;99.90;;;;;;5074135;28;20178;-67
2021/01/02 05:43:18;;;;;;;19.63;12.98;;;4.10;99.90;;;;;;5074386;28;20156;-67
2021/01/02 05:45:43;;;;;;;18.83;13.15;;;4.10;99.90;;;;;;5073907;28;20183;-68
2021/01/02 05:48:11;;;;;;;16.93;12.00;;;4.20;99.90;;;;;;5073222;28;20172;-67
2021/01/02 05:50:47;;;;;;;21.77;13.80;;;4.10;94.40;;;;;;5073899;28;20430;-67
2021/01/02 05:53:21;;;;;;;18.60;12.57;;;4.00;99.90;;;;;;5074629;28;20192;-68
2021/01/02 05:55:46;;;;;;;23.33;11.90;;;3.90;99.90;;;;;;5074436;28;20153;-67
2021/01/02 05:58:18;;;;;;;18.90;12.43;;;4.00;99.90;;;;;;5074026;28;20694;-68
2021/01/02 06:00:45;;;;;;;20.38;13.07;;;4.00;99.90;;;;;;5073952;28;20196;-68
2021/01/02 06:03:29;;;;;;;20.25;11.60;;;4.10;95.20;;;;;;5073936;28;20180;-68
2021/01/02 06:05:56;;;;;;;20.25;11.63;;;4.10;99.90;;;;;;5073994;28;20160;-67
2021/01/02 06:08:33;;;;;;;23.42;12.82;;;4.00;99.90;;;;;;5073750;28;20640;-68
2021/01/02 06:11:01;;;;;;;18.27;11.90;;;3.80;99.90;;;;;;5073861;28;20152;-67
2021/01/02 06:13:28;;;;;;;20.90;12.90;;;3.60;99.90;;;;;;5073497;28;20296;-68
2021/01/02 06:15:57;;;;;;;19.52;12.48;;;3.80;99.90;;;;;;5073748;28;20255;-68
2021/01/02 06:18:23;;;;;;;19.10;11.75;;;3.60;99.90;;;;;;5073340;28;20211;-68
2021/01/02 06:20:48;;;;;;;21.63;13.77;;;3.50;99.90;;;;;;5073405;28;20620;-67
2021/01/02 06:23:17;;;;;;;19.30;12.13;;;3.50;99.90;;;;;;5073685;28;20200;-68
2021/01/02 06:25:46;;;;;;;22.63;13.07;;;3.40;99.90;;;;;;5073313;28;20192;-68
2021/01/02 06:28:14;;;;;;;21.60;13.13;;;3.50;99.90;;;;;;5073225;28;20180;-68
2021/01/02 06:30:39;;;;;;;26.30;13.40;;;3.50;99.90;;;;;;5073416;28;20180;-67
2021/01/02 06:33:05;;;;;;;20.53;12.70;;;3.70;99.90;;;;;;5073175;28;20196;-68
2021/01/02 06:35:38;;;;;;;22.37;13.83;;;3.90;99.90;;;;;;5073217;28;20164;-67
2021/01/02 06:38:04;;;;;;;20.10;12.95;;;4.00;99.90;;;;;;5073269;28;20148;-67
2021/01/02 06:40:42;;;;;;;16.50;12.57;;;4.00;99.90;;;;;;5073353;28;20786;-67
2021/01/02 06:43:10;;;;;;;22.77;12.95;;;3.60;99.90;;;;;;5073344;28;20167;-65
2021/01/02 06:45:35;;;;;;;21.48;12.05;;;3.70;1.00;;;;;;5073145;28;20543;-67
2021/01/02 06:48:24;;;;;;;24.80;12.60;;;3.20;1.00;;;;;;5073224;28;20256;-67
2021/01/02 06:50:53;;;;;;;18.55;12.02;;;3.40;99.90;;;;;;5068023;28;20192;-67
2021/01/02 06:53:36;;;;;;;22.35;13.60;;;3.60;1.00;;;;;;5072888;28;20199;-68
2021/01/02 06:56:02;;;;;;;20.55;13.20;;;3.70;99.90;;;;;;5072998;28;20176;-68
2021/01/02 06:58:45;;;;;;;22.35;13.55;;;3.80;1.00;;;;;;5073094;28;20186;-68
2021/01/02 07:01:16;;;;;;;24.52;12.82;;;3.60;1.00;;;;;;5073000;28;20240;-67
2021/01/02 07:03:50;;;;;;;18.27;12.00;;;3.60;1.00;;;;;;5072907;28;20172;-67
2021/01/02 07:06:22;;;;;;;21.80;12.95;;;3.40;1.00;;;;;;5072951;28;20158;-67
2021/01/02 07:08:49;;;;;;;23.23;12.93;;;3.60;21.90;;;;;;5073027;28;20203;-67
2021/01/02 07:11:38;;;;;;;22.38;13.35;;;3.70;1.00;;;;;;5072780;28;20226;-68
2021/01/02 07:14:09;;;;;;;28.42;15.00;;;3.70;1.00;;;;;;5072695;28;20191;-67
2021/01/02 07:16:50;;;;;;;18.85;13.85;;;3.50;1.00;;;;;;5072721;28;20168;-67
2021/01/02 07:19:31;;;;;;;22.13;13.98;;;3.70;99.90;;;;;;5072888;28;20547;-67
2021/01/02 07:22:19;;;;;;;24.15;15.32;;;3.60;99.90;;;;;;5072846;28;20148;-68
2021/01/02 07:25:01;;;;;;;23.45;13.98;;;3.70;1.00;;;;;;5072702;28;20160;-68
2021/01/02 07:27:31;;;;;;;21.23;14.10;;;4.00;99.90;;;;;;5073023;28;20156;-68
2021/01/02 07:30:08;;;;;;;26.50;14.68;;;4.00;99.90;;;;;;5072653;28;20223;-68
2021/01/02 07:32:44;;;;;;;21.25;12.50;;;4.10;99.90;;;;;;5072540;28;20160;-68
2021/01/02 07:35:13;;;;;;;23.73;13.45;;;3.80;1.00;;;;;;5072594;28;20159;-68
2021/01/02 07:37:41;;;;;;;22.85;14.13;;;3.80;1.00;;;;;;5072458;28;20597;-66
2021/01/02 07:40:09;;;;;;;21.42;13.68;;;3.80;1.00;;;;;;5073018;28;20200;-68
2021/01/02 07:42:40;;;;;;;17.48;12.93;;;3.90;1.00;;;;;;5072422;28;20251;-68
2021/01/02 07:45:15;;;;;;;19.45;12.73;;;3.80;1.00;;;;;;5072558;28;20187;-68
2021/01/02 07:47:54;;;;;;;21.33;14.30;;;3.90;1.00;;;;;;5072768;28;20210;-68
2021/01/02 07:50:22;;;;;;;21.13;13.60;;;3.80;99.90;;;;;;5072407;28;20614;-67
2021/01/02 07:53:04;;;;;;;21.92;14.27;;;3.70;37.30;;;;;;5072335;28;20258;-68
2021/01/02 07:55:33;;;;;;;23.15;13.13;;;3.70;99.90;;;;;;5072397;28;20159;-68
2021/01/02 07:58:00;;;;;;;21.17;12.88;;;4.00;1.00;;;;;;5072319;28;20297;-68
2021/01/02 08:00:26;;;;;;;22.08;14.50;;;3.80;1.00;;;;;;5072479;28;20192;-68
2021/01/02 08:02:52;;;;;;;23.95;14.93;;;3.80;1.00;;;;;;5072627;28;20548;-68
2021/01/02 08:05:20;;;;;;;25.02;14.90;;;3.80;99.90;;;;;;5072586;28;20184;-68
2021/01/02 08:07:57;;;;;;;27.33;14.85;;;3.80;99.90;;;;;;5072267;28;20261;-68
2021/01/02 08:10:23;;;;;;;19.75;12.73;;;3.80;1.00;;;;;;5072540;28;20207;-68
2021/01/02 08:12:52;;;;;;;25.23;14.73;;;3.70;1.00;;;;;;5075841;28;20241;-68
2021/01/02 08:15:38;;;;;;;20.02;13.15;;;3.80;99.90;;;;;;5075853;28;20513;-68
2021/01/02 08:18:04;;;;;;;19.45;13.55;;;3.90;99.90;;;;;;5075316;28;20517;-67
2021/01/02 08:20:30;;;;;;;22.05;13.30;;;4.10;1.00;;;;;;5075555;28;20287;-68
2021/01/02 08:22:56;;;;;;;20.80;13.27;;;4.10;1.00;;;;;;5075552;28;20243;-68
2021/01/02 08:25:22;;;;;;;25.60;13.63;;;4.20;1.00;;;;;;5075492;28;20536;-68
2021/01/02 08:27:49;;;;;;;22.33;13.80;;;4.20;99.90;;;;;;5075588;28;20179;-68
2021/01/02 08:30:15;;;;;;;23.05;15.15;;;4.40;1.00;;;;;;5075429;28;20424;-68
2021/01/02 08:32:47;;;;;;;21.17;14.68;;;4.10;1.00;;;;;;5075329;28;20172;-68
2021/01/02 08:35:34;;;;;;;20.75;13.32;;;4.30;99.90;;;;;;5076014;28;20163;-67
2021/01/02 08:38:05;;;;;;;23.52;14.90;;;4.30;99.90;;;;;;5075461;28;20214;-67
2021/01/02 08:40:49;;;;;;;21.73;14.98;;;4.60;99.90;;;;;;5075668;28;20677;-67
2021/01/02 08:43:25;;;;;;;19.13;13.45;;;4.70;99.90;;;;;;5075571;28;20209;-68
2021/01/02 08:46:07;;;;;;;22.92;14.07;;;4.40;99.90;;;;;;5075234;28;20258;-67
2021/01/02 08:48:32;;;;;;;27.67;12.73;;;4.10;99.90;;;;;;5075096;28;20258;-68
2021/01/02 08:50:58;;;;;;;23.47;14.00;;;4.50;99.90;;;;;;5075112;28;20230;-68
2021/01/02 08:53:28;;;;;;;19.93;12.70;;;4.50;99.90;;;;;;5075172;28;20227;-67
2021/01/02 08:55:54;;;;;;;20.25;13.13;;;4.50;99.90;;;;;;5073970;28;20179;-68
2021/01/02 08:58:35;;;;;;;20.50;13.90;;;4.50;99.90;;;;;;5075252;28;20172;-68
2021/01/02 09:01:01;;;;;;;19.25;13.52;;;4.50;99.90;;;;;;5074819;28;20164;-68
2021/01/02 09:03:27;;;;;;;23.10;14.55;;;4.70;99.90;;;;;;5074663;28;20177;-67
2021/01/02 09:05:52;;;;;;;20.87;13.83;;;4.50;99.90;;;;;;5074992;28;20540;-68
2021/01/02 09:08:19;;;;;;;23.57;14.70;;;4.50;99.90;;;;;;5074851;28;20489;-67
2021/01/02 09:10:47;;;;;;;22.88;12.95;;;4.50;99.90;;;;;;5074841;28;20251;-67
2021/01/02 09:13:19;;;;;;;20.05;14.18;;;4.60;99.90;;;;;;5075112;28;20257;-67
2021/01/02 09:16:02;;;;;;;23.77;14.25;;;4.80;99.90;;;;;;5074984;28;20617;-67
2021/01/02 09:18:30;;;;;;;18.50;13.15;;;4.80;99.90;;;;;;5074341;28;20191;-67
2021/01/02 09:20:57;;;;;;;22.30;13.65;;;4.40;99.90;;;;;;5075011;28;20168;-66
2021/01/02 09:23:33;;;;;;;24.10;13.73;;;4.70;99.90;;;;;;5073472;28;20652;-66
2021/01/02 09:25:59;;;;;;;20.67;12.85;;;4.50;99.90;;;;;;5074616;28;20179;-67
2021/01/02 09:28:24;;;;;;;25.43;14.77;;;4.60;99.90;;;;;;5074220;28;20179;-67
2021/01/02 09:30:51;;;;;;;23.73;14.07;;;4.70;94.80;;;;;;5074319;28;20575;-67
2021/01/02 09:33:16;;;;;;;20.40;14.02;;;5.00;99.90;;;;;;5074007;28;20219;-66
2021/01/02 09:35:44;;;;;;;23.77;13.27;;;5.10;71.50;;;;;;5074006;28;20510;-67
2021/01/02 09:38:11;;;;;;;21.23;13.20;;;4.90;58.10;;;;;;5074128;28;20664;-66
2021/01/02 09:40:42;;;;;;;23.40;14.43;;;5.00;45.30;;;;;;5074257;28;20290;-67
2021/01/02 09:43:11;;;;;;;22.85;13.38;;;5.20;24.50;;;;;;5074039;28;20682;-66
2021/01/02 09:45:36;;;;;;;20.65;12.50;;;5.30;18.90;;;;;;5073952;28;20172;-67
2021/01/02 09:48:02;;;;;;;24.53;12.67;;;5.10;8.50;;;;;;5074315;28;20557;-67
2021/01/02 09:50:28;;;;;;;23.50;13.73;;;4.90;25.00;;;;;;5074102;28;20668;-67
2021/01/02 09:52:54;;;;;;;19.77;13.00;;;5.10;41.50;;;;;;5074191;28;20453;-66
2021/01/02 09:55:19;;;;;;;19.90;13.03;;;5.10;40.40;;;;;;5073830;28;20172;-67
2021/01/02 09:57:47;;;;;;;19.37;13.77;;;5.30;26.80;;;;;;5073852;28;20164;-66
2021/01/02 10:00:13;;;;;;;23.35;13.70;;;5.60;19.30;;;;;;5073542;28;20411;-66
2021/01/02 10:02:39;;;;;;;19.17;14.55;;;5.40;1.00;;;;;;5073464;28;20164;-66
2021/01/02 10:05:05;;;;;;;28.77;14.53;;;5.50;1.00;;;;;;5073721;28;20222;-67
2021/01/02 10:07:30;;;;;;;20.35;13.10;;;5.60;1.70;;;;;;5073840;28;20172;-66
2021/01/02 10:09:56;;;;;;;18.27;11.83;;;5.60;1.00;;;;;;5073346;28;20185;-67
2021/01/02 10:12:21;;;;;;;25.60;13.47;;;5.40;1.00;;;;;;5073387;28;20206;-66
2021/01/02 10:14:47;;;;;;;17.10;11.90;;;6.10;7.50;;;;;;5074097;28;20634;-67
2021/01/02 10:17:14;;;;;;;23.30;12.57;;;6.50;1.00;;;;;;5073632;28;20164;-67
2021/01/02 10:19:44;;;;;;;19.67;12.35;;;7.10;1.00;;;;;;5073281;28;20626;-66
2021/01/02 10:22:10;;;;;;;23.17;13.43;;;7.00;1.00;;;;;;5073427;28;20168;-66
2021/01/02 10:24:36;;;;;;;20.90;13.27;;;6.70;1.00;;;;;;5073275;28;20248;-67
2021/01/02 10:27:04;;;;;;;19.63;13.67;;;6.10;1.00;;;;;;5073267;28;20398;-67
2021/01/02 10:29:29;;;;;;;20.10;12.35;;;6.40;1.00;;;;;;5073220;28;20219;-67
2021/01/02 10:32:04;;;;;;;18.37;11.33;;;6.70;1.00;;;;;;5073103;28;20266;-66
2021/01/02 10:34:30;;;;;;;18.10;12.20;;;6.70;1.00;;;;;;5072356;28;20598;-68
2021/01/02 10:36:55;;;;;;;22.43;13.30;;;6.40;1.00;;;;;;5073486;28;20192;-67
2021/01/02 10:39:22;;;;;;;24.00;13.80;;;6.60;1.00;;;;;;5072949;28;20423;-67
2021/01/02 10:41:49;;;;;;;17.70;12.90;;;6.70;1.00;;;;;;5073022;28;20161;-66
2021/01/02 10:44:16;;;;;;;23.00;13.82;;;6.40;1.00;;;;;;5072823;28;20609;-66
2021/01/02 10:46:46;;;;;;;24.90;14.95;;;6.40;1.00;;;;;;5073143;28;20176;-67
2021/01/02 10:49:13;;;;;;;23.80;14.75;;;6.40;1.00;;;;;;5072629;28;20212;-68
2021/01/02 10:51:39;;;;;;;22.10;14.57;;;6.60;1.00;;;;;;5072706;28;20254;-67
2021/01/02 10:54:06;;;;;;;21.63;14.77;;;6.50;1.00;;;;;;5073266;28;20283;-67
2021/01/02 10:56:32;;;;;;;23.25;14.70;;;6.10;1.00;;;;;;5073187;28;20176;-67
2021/01/02 10:58:57;;;;;;;27.25;14.57;;;6.20;1.00;;;;;;5073045;28;20263;-68
2021/01/02 11:01:23;;;;;;;23.90;14.90;;;6.60;1.00;;;;;;5071503;28;20651;-66
2021/01/02 11:03:48;;;;;;;22.37;14.73;;;6.60;1.00;;;;;;5072831;28;20175;-65
2021/01/02 11:06:15;;;;;;;21.60;14.67;;;6.80;1.00;;;;;;5073067;28;20176;-68
2021/01/02 11:08:41;;;;;;;21.38;13.02;;;6.70;1.00;;;;;;5072933;28;20237;-67
2021/01/02 11:11:07;;;;;;;19.00;12.63;;;6.90;1.00;;;;;;5072846;28;20649;-67
2021/01/02 11:13:35;;;;;;;24.80;13.95;;;6.80;1.00;;;;;;5072720;28;20192;-67
2021/01/02 11:16:01;;;;;;;21.40;13.80;;;6.70;1.00;;;;;;5072757;28;20191;-68
2021/01/02 11:18:26;;;;;;;20.87;12.47;;;6.70;1.00;;;;;;5072510;28;20602;-67
2021/01/02 11:20:52;;;;;;;19.97;12.20;;;6.30;1.00;;;;;;5072698;28;20164;-66
2021/01/02 11:23:19;;;;;;;21.33;13.40;;;6.40;1.00;;;;;;5072664;28;20596;-67
2021/01/02 11:25:45;;;;;;;28.15;16.33;;;6.40;1.00;;;;;;5072845;28;20285;-67
2021/01/02 11:28:12;;;;;;;19.17;13.43;;;6.60;1.00;;;;;;5072628;28;20172;-68
2021/01/02 11:30:37;;;;;;;22.02;12.80;;;6.60;1.00;;;;;;5072332;28;20249;-67
2021/01/02 11:33:03;;;;;;;23.00;12.20;;;6.50;1.00;;;;;;5072312;28;20227;-68
2021/01/02 11:35:29;;;;;;;15.48;10.68;;;6.40;1.00;;;;;;5072705;28;20168;-67
2021/01/02 11:37:54;;;;;;;18.30;12.47;;;6.50;1.00;;;;;;5072953;28;20160;-65
2021/01/02 11:40:20;;;;;;;16.57;12.13;;;6.90;1.00;;;;;;5072535;28;20501;-68
2021/01/02 11:42:46;;;;;;;19.40;12.47;;;6.90;1.00;;;;;;5072953;28;20168;-68
2021/01/02 11:45:14;;;;;;;19.33;12.70;;;7.10;1.00;;;;;;5072751;28;20403;-68
2021/01/02 11:47:40;;;;;;;19.08;11.45;;;7.10;1.00;;;;;;5075959;28;20179;-67
2021/01/02 11:50:06;;;;;;;23.65;12.07;;;7.00;1.00;;;;;;5076269;28;20200;-69
2021/01/02 11:52:32;;;;;;;20.35;12.18;;;6.40;1.00;;;;;;5076364;28;20188;-67
2021/01/02 11:54:57;;;;;;;22.53;13.50;;;6.60;1.00;;;;;;5076117;28;20196;-68
2021/01/02 11:57:23;;;;;;;18.60;11.33;;;7.00;1.00;;;;;;5076340;28;20164;-67
2021/01/02 11:59:48;;;;;;;18.30;12.30;;;6.70;1.00;;;;;;5076168;28;20192;-67
2021/01/02 12:02:14;;;;;;;17.93;11.80;;;6.70;1.00;;;;;;5076049;28;20532;-68
2021/01/02 12:04:39;;;;;;;17.07;11.53;;;7.20;1.00;;;;;;5075914;28;20652;-67
2021/01/02 12:07:06;;;;;;;23.90;14.87;;;7.20;1.00;;;;;;5075881;28;20202;-67
2021/01/02 12:09:31;;;;;;;22.52;12.18;;;7.10;1.00;;;;;;5076102;28;20196;-67
2021/01/02 12:11:58;;;;;;;18.50;11.90;;;7.40;1.00;;;;;;5075801;28;20168;-68
2021/01/02 12:14:32;;;;;;;17.15;10.77;;;7.50;1.00;;;;;;5076076;28;20545;-67
2021/01/02 12:16:59;;;;;;;23.92;12.48;;;7.30;1.00;;;;;;5076025;28;20171;-67
2021/01/02 12:19:30;;;;;;;23.65;13.05;;;7.40;1.00;;;;;;5075555;28;20271;-67
2021/01/02 12:21:59;;;;;;;20.33;11.27;;;7.30;1.00;;;;;;5076059;28;20665;-64
2021/01/02 12:24:25;;;;;;;16.88;12.40;;;7.30;1.00;;;;;;5075501;28;20176;-67
2021/01/02 12:26:53;;;;;;;21.95;13.10;;;7.50;1.00;;;;;;5075409;28;20238;-66
2021/01/02 12:29:21;;;;;;;23.02;13.68;;;7.50;1.00;;;;;;5075300;28;20707;-66
2021/01/02 12:31:53;;;;;;;19.00;12.38;;;7.40;1.00;;;;;;5075129;28;20226;-66
2021/01/02 12:34:21;;;;;;;17.33;11.98;;;7.80;1.00;;;;;;5075103;28;20657;-67
2021/01/02 12:36:47;;;;;;;20.40;12.13;;;7.70;1.00;;;;;;5075047;28;20180;-66
2021/01/02 12:39:17;;;;;;;19.30;12.43;;;7.70;1.00;;;;;;5074998;28;20530;-67
2021/01/02 12:41:42;;;;;;;22.73;11.48;;;7.60;1.00;;;;;;5075416;28;20166;-67
2021/01/02 12:44:08;;;;;;;15.60;10.60;;;7.40;1.00;;;;;;5075434;28;20275;-66
2021/01/02 12:46:52;;;;;;;23.23;12.77;;;7.50;1.00;;;;;;5075135;28;20192;-67
2021/01/02 12:49:21;;;;;;;18.50;12.05;;;7.60;1.00;;;;;;5075139;28;20875;-67
2021/01/02 12:51:47;;;;;;;18.58;12.50;;;7.40;1.00;;;;;;5074814;28;20172;-67
2021/01/02 12:54:14;;;;;;;15.73;11.27;;;7.10;1.00;;;;;;5074852;28;20192;-66
2021/01/02 12:56:44;;;;;;;17.83;11.88;;;7.30;1.00;;;;;;5074833;28;20826;-67